Time;durP1;ratioP1;P1;durP2;ratioP2;P2;SDS_P1;SDS_P2;PMS_P1;PMS_P2;Temp;Humidity;BMP_temperature;BMP_pressure;BME280_temperature;BME280_humidity;BME280_pressure;Samples;Min_cycle;Max_cycle;Signal;HPM_P1;HPM_P2
2023/02/10 00:01:58;;;;;;;5.65;5.20;;;;;;;;;;4508370;28;20030;-60
2023/02/10 00:04:10;;;;;;;9.07;8.38;;;;;;;;;;4517715;28;20050;-59
2023/02/10 00:06:22;;;;;;;5.47;5.00;;;;;;;;;;4507736;28;20034;-58
2023/02/10 00:08:32;;;;;;;3.55;3.25;;;;;;;;;;4505413;28;20493;-60
2023/02/10 00:10:42;;;;;;;3.85;3.55;;;;;;;;;;4506581;28;20046;-59
2023/02/10 00:12:52;;;;;;;1.75;1.65;;;;;;;;;;4512121;28;20033;-60
2023/02/10 00:15:04;;;;;;;3.20;2.90;;;;;;;;;;4506026;28;20441;-60
2023/02/10 00:17:17;;;;;;;1.88;1.77;;;;;;;;;;4516406;28;20041;-60
2023/02/10 00:19:28;;;;;;;1.73;1.63;;;;;;;;;;4512938;28;20230;-59
2023/02/10 00:21:38;;;;;;;3.00;2.78;;;;;;;;;;4508455;28;20802;-59
2023/02/10 00:23:49;;;;;;;2.38;2.17;;;;;;;;;;4508879;28;20479;-58
2023/02/10 00:26:07;;;;;;;1.92;1.83;;;;;;;;;;4508157;28;20108;-60
2023/02/10 00:28:17;;;;;;;2.17;2.00;;;;;;;;;;4506430;28;20132;-59
2023/02/10 00:30:28;;;;;;;1.80;1.70;;;;;;;;;;4499182;28;20034;-59
2023/02/10 00:32:40;;;;;;;1.80;1.70;;;;;;;;;;4508942;28;20406;-60
2023/02/10 00:34:50;;;;;;;1.83;1.73;;;;;;;;;;4507558;28;20046;-60
2023/02/10 00:37:00;;;;;;;2.35;2.15;;;;;;;;;;4507259;28;20148;-58
2023/02/10 00:39:14;;;;;;;3.80;3.50;;;;;;;;;;4512771;28;20148;-58
2023/02/10 00:41:24;;;;;;;1.80;1.70;;;;;;;;;;4491771;28;20911;-59
2023/02/10 00:43:36;;;;;;;2.75;2.55;;;;;;;;;;4514505;28;20531;-59
2023/02/10 00:45:46;;;;;;;2.05;1.90;;;;;;;;;;4516583;28;20532;-59
2023/02/10 00:47:56;;;;;;;1.85;1.75;;;;;;;;;;4505597;28;20479;-59
2023/02/10 00:50:07;;;;;;;2.65;2.45;;;;;;;;;;4508115;28;20034;-60
2023/02/10 00:52:17;;;;;;;2.20;2.00;;;;;;;;;;4507086;28;20041;-60
2023/02/10 00:54:27;;;;;;;2.30;2.10;;;;;;;;;;4505498;28;20037;-60
2023/02/10 00:56:38;;;;;;;1.88;1.77;;;;;;;;;;4516792;28;20336;-59
2023/02/10 00:58:49;;;;;;;2.05;1.90;;;;;;;;;;4508015;28;20034;-60
2023/02/10 01:00:59;;;;;;;1.60;1.50;;;;;;;;;;4510909;28;20075;-58
2023/02/10 01:03:11;;;;;;;1.52;1.42;;;;;;;;;;4514601;28;20550;-58
2023/02/10 01:05:21;;;;;;;3.20;2.90;;;;;;;;;;4506638;28;20030;-59
2023/02/10 01:07:33;;;;;;;1.60;1.50;;;;;;;;;;4507226;28;20033;-60
2023/02/10 01:09:43;;;;;;;2.88;2.65;;;;;;;;;;4506190;28;20049;-58
2023/02/10 01:11:54;;;;;;;2.38;2.15;;;;;;;;;;4506129;28;20049;-59
2023/02/10 01:14:04;;;;;;;3.30;2.97;;;;;;;;;;4512832;28;20156;-59
2023/02/10 01:16:16;;;;;;;1.73;1.63;;;;;;;;;;4507825;28;20030;-60
2023/02/10 01:18:27;;;;;;;1.58;1.48;;;;;;;;;;4504651;28;20038;-59
2023/02/10 01:20:39;;;;;;;2.10;1.90;;;;;;;;;;4511086;28;20513;-60
2023/02/10 01:22:49;;;;;;;1.90;1.80;;;;;;;;;;4506851;28;20148;-59
2023/02/10 01:25:00;;;;;;;1.65;1.55;;;;;;;;;;4514137;28;20033;-59
2023/02/10 01:27:10;;;;;;;1.55;1.45;;;;;;;;;;4515282;28;20044;-59
2023/02/10 01:29:20;;;;;;;2.78;2.58;;;;;;;;;;4514814;28;20052;-59
2023/02/10 01:31:31;;;;;;;1.98;1.80;;;;;;;;;;4505464;28;20541;-60
2023/02/10 01:33:41;;;;;;;1.80;1.70;;;;;;;;;;4504915;28;20036;-59
2023/02/10 01:35:51;;;;;;;2.13;1.92;;;;;;;;;;4503887;28;20049;-60
2023/02/10 01:38:02;;;;;;;1.60;1.50;;;;;;;;;;4506122;28;20065;-59
2023/02/10 01:40:12;;;;;;;2.33;2.13;;;;;;;;;;4505918;28;20568;-59
2023/02/10 01:42:23;;;;;;;1.55;1.45;;;;;;;;;;4507219;28;20525;-59
2023/02/10 01:44:33;;;;;;;2.40;2.20;;;;;;;;;;4509587;28;20048;-59
2023/02/10 01:46:43;;;;;;;2.42;2.22;;;;;;;;;;4512170;28;20033;-60
2023/02/10 01:48:54;;;;;;;1.70;1.60;;;;;;;;;;4506041;28;20389;-60
2023/02/10 01:51:05;;;;;;;1.73;1.63;;;;;;;;;;4514711;28;20053;-59
2023/02/10 01:53:16;;;;;;;1.67;1.58;;;;;;;;;;4506362;28;20811;-60
2023/02/10 01:55:33;;;;;;;2.05;1.85;;;;;;;;;;4512322;28;20033;-59
2023/02/10 01:57:43;;;;;;;;;;;;;;;;;;4521681;28;20018;-59
2023/02/10 01:59:53;;;;;;;1.75;1.65;;;;;;;;;;4503387;28;19913;-59
2023/02/10 02:02:06;;;;;;;2.20;2.00;;;;;;;;;;4504523;28;20046;-61
2023/02/10 02:04:17;;;;;;;2.33;2.13;;;;;;;;;;4504860;28;20092;-59
2023/02/10 02:06:27;;;;;;;2.08;1.95;;;;;;;;;;4504176;28;20042;-61
2023/02/10 02:08:38;;;;;;;1.73;1.63;;;;;;;;;;4505302;28;20551;-60
2023/02/10 02:10:51;;;;;;;2.42;2.22;;;;;;;;;;4514391;28;20045;-60
2023/02/10 02:13:11;;;;;;;2.13;1.92;;;;;;;;;;4520799;28;20068;-59
2023/02/10 02:15:30;;;;;;;2.10;1.90;;;;;;;;;;4506076;28;20576;-58
2023/02/10 02:17:51;;;;;;;1.60;1.50;;;;;;;;;;4511947;28;20033;-59
2023/02/10 02:22:35;;;;;;;1.50;1.40;;;;;;;;;;4507125;28;20143;-59
2023/02/10 02:24:55;;;;;;;1.65;1.55;;;;;;;;;;4505498;28;20103;-59
2023/02/10 02:27:26;;;;;;;1.80;1.70;;;;;;;;;;4506609;28;20042;-59
2023/02/10 02:29:55;;;;;;;1.98;1.85;;;;;;;;;;4504182;28;20042;-60
2023/02/10 02:32:17;;;;;;;1.95;1.77;;;;;;;;;;4505929;28;20077;-60
2023/02/10 02:34:34;;;;;;;1.65;1.55;;;;;;;;;;4505312;28;20029;-60
2023/02/10 02:36:48;;;;;;;1.73;1.63;;;;;;;;;;4505750;28;20041;-60
2023/02/10 02:43:44;;;;;;;1.50;1.40;;;;;;;;;;4512061;28;20052;-60
2023/02/10 02:46:00;;;;;;;1.70;1.60;;;;;;;;;;4499943;28;20042;-61
2023/02/10 02:48:16;;;;;;;1.88;1.77;;;;;;;;;;4480288;28;20779;-59
2023/02/10 02:50:45;;;;;;;1.73;1.60;;;;;;;;;;4494720;28;20654;-61
2023/02/10 02:52:58;;;;;;;1.60;1.50;;;;;;;;;;4481305;28;20048;-61
2023/02/10 02:55:13;;;;;;;1.40;1.30;;;;;;;;;;4480990;28;20031;-61
2023/02/10 02:57:23;;;;;;;1.75;1.65;;;;;;;;;;4461354;28;20035;-60
2023/02/10 02:59:42;;;;;;;1.50;1.40;;;;;;;;;;4484628;28;20607;-60
2023/02/10 03:01:57;;;;;;;1.52;1.42;;;;;;;;;;4498621;28;20085;-60
2023/02/10 03:04:10;;;;;;;1.80;1.70;;;;;;;;;;4483256;28;20038;-61
2023/02/10 03:06:24;;;;;;;1.60;1.50;;;;;;;;;;4499684;28;20038;-58
2023/02/10 03:08:36;;;;;;;1.50;1.40;;;;;;;;;;4499930;28;20046;-60
2023/02/10 03:10:46;;;;;;;1.60;1.50;;;;;;;;;;4483499;28;20046;-59
2023/02/10 03:12:57;;;;;;;1.70;1.60;;;;;;;;;;4488700;28;20037;-60
2023/02/10 03:15:07;;;;;;;1.60;1.45;;;;;;;;;;4498824;28;20076;-61
2023/02/10 03:17:17;;;;;;;1.60;1.50;;;;;;;;;;4497801;28;20034;-60
2023/02/10 03:19:28;;;;;;;1.40;1.30;;;;;;;;;;4497624;28;20030;-61
2023/02/10 03:21:38;;;;;;;1.52;1.42;;;;;;;;;;4497152;28;20462;-61
2023/02/10 03:23:48;;;;;;;1.38;1.27;;;;;;;;;;4499013;28;20074;-61
2023/02/10 03:25:59;;;;;;;1.63;1.52;;;;;;;;;;4498876;28;20093;-60
2023/02/10 03:28:10;;;;;;;1.50;1.40;;;;;;;;;;4497462;28;20034;-61
2023/02/10 03:30:21;;;;;;;1.50;1.40;;;;;;;;;;4482341;28;20042;-60
2023/02/10 03:32:31;;;;;;;1.48;1.38;;;;;;;;;;4481387;28;20319;-60
2023/02/10 03:34:42;;;;;;;1.63;1.52;;;;;;;;;;4497716;28;20045;-60
2023/02/10 03:36:52;;;;;;;1.30;1.20;;;;;;;;;;4498615;28;20033;-61
2023/02/10 03:39:03;;;;;;;1.50;1.40;;;;;;;;;;4498210;28;20500;-59
2023/02/10 03:41:13;;;;;;;1.50;1.40;;;;;;;;;;4497393;28;20042;-60
2023/02/10 03:43:24;;;;;;;1.67;1.58;;;;;;;;;;4481489;28;20038;-61
2023/02/10 03:45:34;;;;;;;1.70;1.60;;;;;;;;;;4484346;28;20077;-61
2023/02/10 03:47:44;;;;;;;1.52;1.42;;;;;;;;;;4502907;28;20041;-61
2023/02/10 03:49:55;;;;;;;1.50;1.40;;;;;;;;;;4502227;28;20500;-60
2023/02/10 03:52:05;;;;;;;1.38;1.27;;;;;;;;;;4484537;28;20047;-61
2023/02/10 03:54:15;;;;;;;1.30;1.20;;;;;;;;;;4484042;28;20049;-61
2023/02/10 03:56:26;;;;;;;1.30;1.20;;;;;;;;;;4502046;28;20034;-60
2023/02/10 03:58:36;;;;;;;1.40;1.30;;;;;;;;;;4501055;28;20036;-60
2023/02/10 04:00:46;;;;;;;1.50;1.40;;;;;;;;;;4485659;28;20104;-59
2023/02/10 04:02:57;;;;;;;1.63;1.25;;;;;;;;;;4501190;28;20555;-60
2023/02/10 04:05:07;;;;;;;1.50;1.40;;;;;;;;;;4482948;28;20158;-60
2023/02/10 04:07:18;;;;;;;1.38;1.27;;;;;;;;;;4499954;28;20042;-60
2023/02/10 04:09:28;;;;;;;1.40;1.30;;;;;;;;;;4501833;28;20398;-61
2023/02/10 04:11:39;;;;;;;1.50;1.40;;;;;;;;;;4484073;28;20038;-60
2023/02/10 04:13:49;;;;;;;1.42;1.33;;;;;;;;;;4501034;28;20664;-61
2023/02/10 04:16:00;;;;;;;1.50;1.40;;;;;;;;;;4484766;28;20061;-60
2023/02/10 04:18:10;;;;;;;1.33;1.23;;;;;;;;;;4467564;28;20102;-60
2023/02/10 04:20:21;;;;;;;1.38;1.27;;;;;;;;;;4501258;28;20112;-61
2023/02/10 04:22:31;;;;;;;1.40;1.30;;;;;;;;;;4502107;28;20038;-60
2023/02/10 04:24:42;;;;;;;1.40;1.30;;;;;;;;;;4483293;28;20105;-61
2023/02/10 04:26:52;;;;;;;1.30;1.20;;;;;;;;;;4499550;28;20468;-60
2023/02/10 04:29:03;;;;;;;1.17;1.08;;;;;;;;;;4501694;28;20046;-60
2023/02/10 04:31:14;;;;;;;1.50;1.40;;;;;;;;;;4502917;28;20038;-60
2023/02/10 04:33:27;;;;;;;1.27;1.17;;;;;;;;;;4484331;28;20050;-60
2023/02/10 04:35:37;;;;;;;1.38;1.27;;;;;;;;;;4502133;28;20029;-60
2023/02/10 04:37:48;;;;;;;1.40;1.30;;;;;;;;;;4500120;28;20030;-60
2023/02/10 04:39:58;;;;;;;1.42;1.33;;;;;;;;;;4501776;28;20104;-60
2023/02/10 04:42:08;;;;;;;1.40;1.15;;;;;;;;;;4481718;28;20600;-59
2023/02/10 04:44:19;;;;;;;1.65;1.40;;;;;;;;;;4501864;28;20041;-61
2023/02/10 04:46:29;;;;;;;1.27;1.17;;;;;;;;;;4498876;28;20040;-61
2023/02/10 04:48:39;;;;;;;1.40;1.30;;;;;;;;;;4502229;28;20038;-60
2023/02/10 04:50:51;;;;;;;1.50;1.35;;;;;;;;;;4501011;28;20407;-61
2023/02/10 04:53:02;;;;;;;1.50;1.40;;;;;;;;;;4471262;28;20057;-61
2023/02/10 04:55:12;;;;;;;1.30;1.20;;;;;;;;;;4482764;28;20065;-61
2023/02/10 04:57:22;;;;;;;1.30;1.20;;;;;;;;;;4483337;28;20035;-60
2023/02/10 04:59:33;;;;;;;1.45;1.35;;;;;;;;;;4501076;28;20058;-59
2023/02/10 05:01:43;;;;;;;1.60;1.50;;;;;;;;;;4501246;28;20614;-61
2023/02/10 05:03:53;;;;;;;1.30;1.20;;;;;;;;;;4482703;28;20479;-61
2023/02/10 05:06:11;;;;;;;1.20;1.10;;;;;;;;;;4501252;28;20029;-60
2023/02/10 05:08:23;;;;;;;1.30;1.20;;;;;;;;;;4500898;28;20567;-61
2023/02/10 05:10:33;;;;;;;1.40;1.10;;;;;;;;;;4500401;28;20077;-59
2023/02/10 05:12:44;;;;;;;1.30;1.13;;;;;;;;;;4482309;28;20109;-61
2023/02/10 05:14:54;;;;;;;1.23;1.13;;;;;;;;;;4501562;28;20054;-60
2023/02/10 05:17:04;;;;;;;1.20;1.10;;;;;;;;;;4471438;28;20093;-59
2023/02/10 05:19:15;;;;;;;1.20;1.10;;;;;;;;;;4499897;28;20095;-61
2023/02/10 05:21:25;;;;;;;1.27;1.17;;;;;;;;;;4499690;28;20033;-61
2023/02/10 05:23:36;;;;;;;1.33;1.23;;;;;;;;;;4480998;28;20446;-59
2023/02/10 05:25:46;;;;;;;1.30;1.20;;;;;;;;;;4500513;28;20065;-60
2023/02/10 05:27:56;;;;;;;1.10;1.00;;;;;;;;;;4482374;28;20048;-61
2023/02/10 05:30:09;;;;;;;1.20;1.10;;;;;;;;;;4501233;28;20042;-60
2023/02/10 05:32:19;;;;;;;1.23;1.13;;;;;;;;;;4501397;28;20048;-60
2023/02/10 05:34:29;;;;;;;0.90;0.90;;;;;;;;;;4482453;28;20056;-59
2023/02/10 05:36:40;;;;;;;1.20;1.10;;;;;;;;;;4500310;28;20416;-60
2023/02/10 05:41:19;;;;;;;1.20;1.10;;;;;;;;;;4498741;28;20026;-61
2023/02/10 05:43:29;;;;;;;1.38;1.20;;;;;;;;;;4482374;28;20042;-61
2023/02/10 05:45:41;;;;;;;1.30;1.20;;;;;;;;;;4499540;28;20544;-61
2023/02/10 05:47:52;;;;;;;1.30;1.20;;;;;;;;;;4499854;28;20125;-61
2023/02/10 05:50:02;;;;;;;1.20;1.10;;;;;;;;;;4500016;28;20025;-61
2023/02/10 05:52:12;;;;;;;1.08;1.00;;;;;;;;;;4499593;28;20051;-61
2023/02/10 05:54:22;;;;;;;1.25;1.15;;;;;;;;;;4499699;28;20577;-61
2023/02/10 05:56:33;;;;;;;1.38;1.27;;;;;;;;;;4471177;28;20149;-61
2023/02/10 05:58:43;;;;;;;1.30;1.20;;;;;;;;;;4486053;28;20073;-61
2023/02/10 06:00:54;;;;;;;1.25;1.15;;;;;;;;;;4500438;28;20447;-61
2023/02/10 06:03:04;;;;;;;1.20;1.10;;;;;;;;;;4499564;28;21083;-61
2023/02/10 06:05:14;;;;;;;1.48;1.38;;;;;;;;;;4481995;28;20617;-58
2023/02/10 06:07:25;;;;;;;1.15;1.05;;;;;;;;;;4499831;28;20038;-60
2023/02/10 06:09:35;;;;;;;1.38;1.27;;;;;;;;;;4498615;28;20125;-59
2023/02/10 06:11:46;;;;;;;1.35;1.25;;;;;;;;;;4482925;28;20061;-58
2023/02/10 06:13:57;;;;;;;1.15;1.00;;;;;;;;;;4481600;28;20026;-58
2023/02/10 06:16:07;;;;;;;1.42;1.33;;;;;;;;;;4500254;28;20369;-57
2023/02/10 06:18:18;;;;;;;1.30;1.20;;;;;;;;;;4502059;28;20535;-59
2023/02/10 06:20:28;;;;;;;1.40;1.30;;;;;;;;;;4486996;28;20050;-59
2023/02/10 06:22:38;;;;;;;1.30;1.20;;;;;;;;;;4498640;28;20056;-58
2023/02/10 06:24:49;;;;;;;1.30;1.20;;;;;;;;;;4481544;28;20744;-59
2023/02/10 06:26:59;;;;;;;1.27;1.17;;;;;;;;;;4501127;28;20061;-60
2023/02/10 06:29:09;;;;;;;1.30;1.20;;;;;;;;;;4500477;28;20026;-59
2023/02/10 06:31:20;;;;;;;1.30;1.20;;;;;;;;;;4502758;28;20049;-59
2023/02/10 06:33:30;;;;;;;1.30;1.20;;;;;;;;;;4503181;28;20504;-58
2023/02/10 06:35:41;;;;;;;1.20;1.10;;;;;;;;;;4484345;28;20153;-57
2023/02/10 06:37:51;;;;;;;1.30;1.20;;;;;;;;;;4503937;28;20034;-58
2023/02/10 06:40:05;;;;;;;1.25;1.15;;;;;;;;;;4468703;28;20101;-58
2023/02/10 06:42:16;;;;;;;1.40;1.20;;;;;;;;;;4502783;28;20049;-58
2023/02/10 06:44:26;;;;;;;1.20;1.10;;;;;;;;;;4468928;28;20413;-60
2023/02/10 06:46:36;;;;;;;1.20;1.10;;;;;;;;;;4468782;28;20596;-58
2023/02/10 06:48:47;;;;;;;1.23;1.13;;;;;;;;;;4501884;28;20037;-59
2023/02/10 06:50:57;;;;;;;1.15;1.08;;;;;;;;;;4483419;28;20528;-59
2023/02/10 06:53:07;;;;;;;1.30;1.17;;;;;;;;;;4486103;28;20404;-59
2023/02/10 06:55:18;;;;;;;1.40;1.30;;;;;;;;;;4502551;28;20061;-58
2023/02/10 06:57:28;;;;;;;1.20;1.10;;;;;;;;;;4483721;28;20042;-59
2023/02/10 06:59:38;;;;;;;1.10;1.10;;;;;;;;;;4502145;28;20556;-59
2023/02/10 07:01:49;;;;;;;1.20;1.10;;;;;;;;;;4500005;28;20033;-58
2023/02/10 07:03:59;;;;;;;1.10;1.00;;;;;;;;;;4481369;28;20038;-58
2023/02/10 07:06:09;;;;;;;0.90;0.90;;;;;;;;;;4500070;28;20045;-57
2023/02/10 07:08:20;;;;;;;1.20;1.10;;;;;;;;;;4498541;28;20087;-58
2023/02/10 07:10:31;;;;;;;1.00;1.00;;;;;;;;;;4482075;28;20089;-58
2023/02/10 07:12:41;;;;;;;0.98;0.90;;;;;;;;;;4501885;28;20073;-59
2023/02/10 07:14:51;;;;;;;1.20;1.10;;;;;;;;;;4499707;28;20456;-58
2023/02/10 07:17:02;;;;;;;0.90;0.90;;;;;;;;;;4498593;28;20689;-59
2023/02/10 07:19:12;;;;;;;1.05;1.00;;;;;;;;;;4481514;28;20513;-59
2023/02/10 07:21:22;;;;;;;0.80;0.80;;;;;;;;;;4482475;28;20048;-59
2023/02/10 07:23:33;;;;;;;0.90;0.90;;;;;;;;;;4481646;28;20045;-59
2023/02/10 07:25:44;;;;;;;0.80;0.80;;;;;;;;;;4499710;28;20500;-59
2023/02/10 07:27:54;;;;;;;1.60;1.50;;;;;;;;;;4499052;28;20049;-59
2023/02/10 07:30:05;;;;;;;1.20;1.10;;;;;;;;;;4481682;28;20057;-60
2023/02/10 07:32:15;;;;;;;1.20;1.10;;;;;;;;;;4498721;28;20563;-60
2023/02/10 07:34:26;;;;;;;1.20;1.10;;;;;;;;;;4481461;28;20043;-58
2023/02/10 07:36:37;;;;;;;1.23;1.13;;;;;;;;;;4483739;28;20888;-59
2023/02/10 07:38:47;;;;;;;1.70;1.60;;;;;;;;;;4482121;28;20409;-60
2023/02/10 07:40:58;;;;;;;0.80;0.80;;;;;;;;;;4499550;28;20025;-58
2023/02/10 07:43:08;;;;;;;0.98;0.93;;;;;;;;;;4499958;28;20033;-58
2023/02/10 07:45:26;;;;;;;1.08;1.00;;;;;;;;;;4471207;28;20050;-60
2023/02/10 07:47:36;;;;;;;1.00;1.00;;;;;;;;;;4499906;28;20117;-59
2023/02/10 07:49:47;;;;;;;1.20;1.10;;;;;;;;;;4499502;28;20615;-60
2023/02/10 07:51:58;;;;;;;1.10;1.00;;;;;;;;;;4497488;28;20096;-60
2023/02/10 07:54:08;;;;;;;1.00;1.00;;;;;;;;;;4499934;28;20508;-59
2023/02/10 07:56:18;;;;;;;1.13;1.02;;;;;;;;;;4481939;28;20125;-59
2023/02/10 07:58:29;;;;;;;2.22;1.15;;;;;;;;;;4481597;28;20557;-60
2023/02/10 08:00:40;;;;;;;1.00;1.00;;;;;;;;;;4499642;28;20036;-59
2023/02/10 08:02:50;;;;;;;0.95;0.95;;;;;;;;;;4480993;28;20053;-60
2023/02/10 08:05:00;;;;;;;0.90;0.90;;;;;;;;;;4500320;28;20044;-60
2023/02/10 08:07:11;;;;;;;1.10;1.10;;;;;;;;;;4499345;28;20125;-60
2023/02/10 08:09:22;;;;;;;1.13;1.00;;;;;;;;;;4466374;28;20150;-59
2023/02/10 08:11:32;;;;;;;1.05;0.95;;;;;;;;;;4498984;28;20081;-60
2023/02/10 08:13:43;;;;;;;1.13;1.02;;;;;;;;;;4480454;28;20061;-60
2023/02/10 08:15:54;;;;;;;1.10;1.00;;;;;;;;;;4480356;28;20492;-59
2023/02/10 08:18:04;;;;;;;0.95;0.95;;;;;;;;;;4498915;28;20033;-59
2023/02/10 08:20:14;;;;;;;0.80;0.80;;;;;;;;;;4500152;28;20071;-60
2023/02/10 08:22:25;;;;;;;1.10;1.00;;;;;;;;;;4501076;28;20471;-59
2023/02/10 08:24:35;;;;;;;0.90;0.90;;;;;;;;;;4501339;28;20093;-60
2023/02/10 08:26:45;;;;;;;0.90;0.90;;;;;;;;;;4482316;28;20081;-59
2023/02/10 08:28:58;;;;;;;1.15;1.05;;;;;;;;;;4482346;28;20026;-59
2023/02/10 08:31:09;;;;;;;1.67;1.10;;;;;;;;;;4500602;28;20046;-60
2023/02/10 08:33:20;;;;;;;1.10;1.00;;;;;;;;;;4482006;28;20130;-60
2023/02/10 08:35:30;;;;;;;1.30;1.20;;;;;;;;;;4501288;28;20128;-60
2023/02/10 08:37:40;;;;;;;1.55;1.30;;;;;;;;;;4481613;28;20066;-61
2023/02/10 08:39:51;;;;;;;0.98;0.98;;;;;;;;;;4501248;28;20034;-59
2023/02/10 08:42:01;;;;;;;0.85;0.85;;;;;;;;;;4500935;28;20046;-59
2023/02/10 08:44:12;;;;;;;0.88;0.88;;;;;;;;;;4482658;28;20054;-60
2023/02/10 08:46:22;;;;;;;0.90;0.90;;;;;;;;;;4501504;28;20512;-60
2023/02/10 08:48:33;;;;;;;1.10;1.05;;;;;;;;;;4499516;28;20771;-60
2023/02/10 08:50:43;;;;;;;2.30;1.35;;;;;;;;;;4500838;28;20112;-58
2023/02/10 08:52:54;;;;;;;1.35;1.20;;;;;;;;;;4501531;28;20104;-59
2023/02/10 08:55:04;;;;;;;0.90;0.90;;;;;;;;;;4502486;28;20042;-61
2023/02/10 08:57:15;;;;;;;1.10;1.00;;;;;;;;;;4467441;28;20477;-62
2023/02/10 08:59:25;;;;;;;0.90;0.90;;;;;;;;;;4467366;28;20046;-57
2023/02/10 09:01:35;;;;;;;0.90;0.90;;;;;;;;;;4484156;28;20394;-59
2023/02/10 09:03:46;;;;;;;0.80;0.80;;;;;;;;;;4502975;28;20034;-59
2023/02/10 09:05:57;;;;;;;0.90;0.90;;;;;;;;;;4485334;28;20042;-59
2023/02/10 09:08:08;;;;;;;0.90;0.90;;;;;;;;;;4485414;28;20030;-58
2023/02/10 09:10:18;;;;;;;6.05;5.43;;;;;;;;;;4469090;28;20042;-57
2023/02/10 09:12:29;;;;;;;5.18;4.68;;;;;;;;;;4484679;28;20042;-60
2023/02/10 09:14:39;;;;;;;4.35;3.80;;;;;;;;;;4486309;28;20030;-58
2023/02/10 09:16:51;;;;;;;3.80;3.45;;;;;;;;;;4504227;28;20046;-58
2023/02/10 09:19:01;;;;;;;2.20;1.75;;;;;;;;;;4501732;28;20038;-58
2023/02/10 09:21:12;;;;;;;2.85;2.40;;;;;;;;;;4501397;28;20469;-61
2023/02/10 09:23:22;;;;;;;3.17;1.90;;;;;;;;;;4501783;28;20072;-58
2023/02/10 09:25:32;;;;;;;2.10;1.90;;;;;;;;;;4501525;28;20099;-59
2023/02/10 09:27:43;;;;;;;2.30;1.48;;;;;;;;;;4490551;28;20045;-60
2023/02/10 09:29:53;;;;;;;1.67;1.40;;;;;;;;;;4503015;28;20093;-57
2023/02/10 09:32:04;;;;;;;1.33;1.23;;;;;;;;;;4501461;28;20046;-59
2023/02/10 09:34:14;;;;;;;1.30;1.20;;;;;;;;;;4503106;28;20057;-60
2023/02/10 09:36:24;;;;;;;1.55;1.45;;;;;;;;;;4485867;28;20053;-59
2023/02/10 09:38:35;;;;;;;1.13;1.02;;;;;;;;;;4502666;28;20113;-59
2023/02/10 09:41:00;;;;;;;1.40;1.30;;;;;;;;;;4502434;28;20118;-57
2023/02/10 09:43:29;;;;;;;1.50;1.40;;;;;;;;;;4501110;28;20042;-58
2023/02/10 09:45:41;;;;;;;4.05;3.60;;;;;;;;;;4484597;28;22005;-58
2023/02/10 09:47:57;;;;;;;6.28;5.68;;;;;;;;;;4483677;28;20104;-59
2023/02/10 09:50:14;;;;;;;6.07;5.43;;;;;;;;;;4483791;28;20072;-61
2023/02/10 09:52:33;;;;;;;6.43;5.72;;;;;;;;;;4484203;28;20084;-58
2023/02/10 09:54:44;;;;;;;6.70;6.10;;;;;;;;;;4485008;28;20035;-60
2023/02/10 09:56:55;;;;;;;6.65;6.05;;;;;;;;;;4503311;28;20030;-57
2023/02/10 09:59:10;;;;;;;3.92;2.70;;;;;;;;;;4501362;28;20026;-58
2023/02/10 10:01:23;;;;;;;2.33;1.30;;;;;;;;;;4502186;28;20096;-57
2023/02/10 10:03:46;;;;;;;1.48;1.38;;;;;;;;;;4484870;28;20038;-56
2023/02/10 10:05:59;;;;;;;2.05;1.30;;;;;;;;;;4501606;28;20087;-58
2023/02/10 10:08:22;;;;;;;5.85;5.25;;;;;;;;;;4503033;28;20033;-57
2023/02/10 10:10:36;;;;;;;1.95;1.50;;;;;;;;;;4501675;28;20037;-56
2023/02/10 10:12:47;;;;;;;1.50;1.40;;;;;;;;;;4484923;28;20125;-56
2023/02/10 10:14:57;;;;;;;1.50;1.40;;;;;;;;;;4483869;28;20042;-57
2023/02/10 10:17:26;;;;;;;1.30;1.20;;;;;;;;;;4483135;28;20125;-55
2023/02/10 10:19:55;;;;;;;1.30;1.20;;;;;;;;;;4501405;28;20141;-59
2023/02/10 10:22:20;;;;;;;1.83;1.25;;;;;;;;;;4502155;28;20038;-57
2023/02/10 10:24:30;;;;;;;1.60;1.45;;;;;;;;;;4466023;28;20038;-57
2023/02/10 10:26:55;;;;;;;1.30;1.20;;;;;;;;;;4485114;28;20050;-56
2023/02/10 10:29:19;;;;;;;2.38;1.40;;;;;;;;;;4488686;28;20209;-57
2023/02/10 10:31:32;;;;;;;2.17;1.58;;;;;;;;;;4483419;28;20100;-57
2023/02/10 10:33:50;;;;;;;2.30;2.10;;;;;;;;;;4501684;28;20149;-58
2023/02/10 10:36:01;;;;;;;2.30;2.10;;;;;;;;;;4501249;28;20688;-57
2023/02/10 10:38:13;;;;;;;3.25;2.95;;;;;;;;;;4502158;28;20026;-57
2023/02/10 10:40:32;;;;;;;3.63;3.33;;;;;;;;;;4484805;28;20042;-57
2023/02/10 10:42:46;;;;;;;3.20;2.90;;;;;;;;;;4503260;28;20034;-57
2023/02/10 10:45:01;;;;;;;3.92;3.53;;;;;;;;;;4502296;28;20056;-57
2023/02/10 10:47:18;;;;;;;4.18;3.80;;;;;;;;;;4501438;28;20030;-56
2023/02/10 10:49:28;;;;;;;4.82;4.43;;;;;;;;;;4485660;28;20658;-57
2023/02/10 10:51:39;;;;;;;4.25;3.85;;;;;;;;;;4499704;28;20425;-56
2023/02/10 10:53:51;;;;;;;4.50;4.10;;;;;;;;;;4501790;28;20100;-57
2023/02/10 10:56:03;;;;;;;4.60;4.20;;;;;;;;;;4499998;28;20061;-57
2023/02/10 10:58:25;;;;;;;4.93;4.53;;;;;;;;;;4483531;28;20152;-57
2023/02/10 11:00:36;;;;;;;5.78;5.15;;;;;;;;;;4501257;28;20038;-58
2023/02/10 11:03:03;;;;;;;5.97;5.38;;;;;;;;;;4500796;28;20044;-57
2023/02/10 11:05:15;;;;;;;6.93;6.32;;;;;;;;;;4483146;28;20062;-57
2023/02/10 11:07:25;;;;;;;7.00;6.40;;;;;;;;;;4500046;28;20061;-57
2023/02/10 11:09:40;;;;;;;7.70;7.00;;;;;;;;;;4500843;28;20049;-56
2023/02/10 11:11:51;;;;;;;7.25;6.55;;;;;;;;;;4498835;28;20124;-57
2023/02/10 11:14:02;;;;;;;8.18;7.47;;;;;;;;;;4483317;28;20125;-56
2023/02/10 11:16:16;;;;;;;8.30;7.60;;;;;;;;;;4500695;28;20037;-56
2023/02/10 11:18:26;;;;;;;8.20;7.50;;;;;;;;;;4490955;28;20531;-56
2023/02/10 11:20:37;;;;;;;8.82;8.05;;;;;;;;;;4487077;28;20610;-56
2023/02/10 11:22:54;;;;;;;8.60;7.90;;;;;;;;;;4475702;28;20130;-55
2023/02/10 11:25:25;;;;;;;8.40;7.68;;;;;;;;;;4475779;28;20041;-58
2023/02/10 11:27:35;;;;;;;9.48;8.68;;;;;;;;;;4486000;28;20043;-57
2023/02/10 11:29:49;;;;;;;9.30;8.40;;;;;;;;;;4470726;28;20047;-57
2023/02/10 11:32:00;;;;;;;9.40;8.60;;;;;;;;;;4458412;28;20165;-57
2023/02/10 11:34:17;;;;;;;10.80;9.80;;;;;;;;;;4486258;28;20130;-57
2023/02/10 11:36:36;;;;;;;10.07;9.18;;;;;;;;;;4486948;28;20042;-57
2023/02/10 11:38:46;;;;;;;10.30;9.30;;;;;;;;;;4491993;28;20724;-57
2023/02/10 11:40:58;;;;;;;10.35;9.45;;;;;;;;;;4505730;28;20950;-56
2023/02/10 11:43:12;;;;;;;10.30;9.40;;;;;;;;;;4486098;28;20058;-57
2023/02/10 11:45:29;;;;;;;10.57;9.68;;;;;;;;;;4487352;28;20041;-57
2023/02/10 11:47:40;;;;;;;11.02;10.10;;;;;;;;;;4505227;28;20042;-56
2023/02/10 11:49:50;;;;;;;11.38;10.38;;;;;;;;;;4505206;28;20038;-57
2023/02/10 11:52:01;;;;;;;10.75;9.75;;;;;;;;;;4503831;28;20833;-56
2023/02/10 11:54:12;;;;;;;12.38;11.30;;;;;;;;;;4505658;28;20505;-55
2023/02/10 11:58:58;;;;;;;12.57;11.48;;;;;;;;;;4504451;28;20358;-57
2023/02/10 11:59:03;;;;;;;11.82;10.65;;;;;;;;;;4503157;28;20182;-57
2023/02/10 12:01:13;;;;;;;11.50;10.50;;;;;;;;;;4502102;28;21452;-57
2023/02/10 12:03:50;;;;;;;12.57;11.48;;;;;;;;;;4505234;28;20029;-57
2023/02/10 12:06:17;;;;;;;11.88;10.88;;;;;;;;;;4449603;28;20062;-57
2023/02/10 12:08:40;;;;;;;12.20;11.20;;;;;;;;;;4485600;28;20050;-57
2023/02/10 12:10:55;;;;;;;12.57;11.40;;;;;;;;;;4503732;28;20045;-57
2023/02/10 12:13:13;;;;;;;12.85;11.75;;;;;;;;;;4486811;28;20033;-57
2023/02/10 12:15:26;;;;;;;12.57;11.48;;;;;;;;;;4502480;28;20026;-57
2023/02/10 12:17:37;;;;;;;13.30;12.10;;;;;;;;;;4503503;28;20037;-55
2023/02/10 12:19:51;;;;;;;13.38;12.23;;;;;;;;;;4503871;28;20049;-57
2023/02/10 12:22:12;;;;;;;13.55;12.38;;;;;;;;;;4485739;28;20034;-58
2023/02/10 12:24:35;;;;;;;13.90;12.70;;;;;;;;;;4486472;28;20049;-57
2023/02/10 12:26:45;;;;;;;14.63;13.32;;;;;;;;;;4503821;28;20026;-56
2023/02/10 12:28:58;;;;;;;13.57;12.38;;;;;;;;;;4502613;28;20033;-56
2023/02/10 12:31:16;;;;;;;14.40;13.20;;;;;;;;;;4504025;28;20057;-56
2023/02/10 12:33:41;;;;;;;14.57;13.38;;;;;;;;;;4502931;28;20038;-57
2023/02/10 12:35:52;;;;;;;14.63;13.43;;;;;;;;;;4504200;28;20188;-56
2023/02/10 12:38:17;;;;;;;14.98;13.68;;;;;;;;;;4484088;28;20176;-57
2023/02/10 12:40:27;;;;;;;15.05;13.75;;;;;;;;;;4470373;28;20050;-58
2023/02/10 12:42:57;;;;;;;15.98;14.50;;;;;;;;;;4468538;28;20034;-57
2023/02/10 12:45:19;;;;;;;15.00;13.70;;;;;;;;;;4504979;28;20041;-56
2023/02/10 12:47:32;;;;;;;15.18;13.85;;;;;;;;;;4486405;28;20041;-57
2023/02/10 12:49:52;;;;;;;16.08;14.68;;;;;;;;;;4505318;28;20033;-57
2023/02/10 12:52:07;;;;;;;15.82;14.43;;;;;;;;;;4474607;28;20050;-56
2023/02/10 12:54:24;;;;;;;15.85;14.55;;;;;;;;;;4473267;28;20035;-56
2023/02/10 12:56:39;;;;;;;15.68;14.27;;;;;;;;;;4502619;28;20112;-56
2023/02/10 12:58:55;;;;;;;15.63;14.32;;;;;;;;;;4504000;28;20046;-56
2023/02/10 13:01:15;;;;;;;16.13;14.73;;;;;;;;;;4500598;28;20037;-60
2023/02/10 13:03:32;;;;;;;16.33;14.82;;;;;;;;;;4500790;28;20034;-60
2023/02/10 13:05:48;;;;;;;15.98;14.57;;;;;;;;;;4501243;28;21417;-60
2023/02/10 13:08:00;;;;;;;16.42;15.00;;;;;;;;;;4482427;28;20166;-59
2023/02/10 13:10:31;;;;;;;16.92;15.43;;;;;;;;;;4481463;28;20224;-59
2023/02/10 13:12:44;;;;;;;17.35;15.75;;;;;;;;;;4482703;28;20149;-59
2023/02/10 13:15:06;;;;;;;16.08;14.68;;;;;;;;;;4500019;28;20039;-58
2023/02/10 13:17:16;;;;;;;16.25;14.85;;;;;;;;;;4480984;28;20029;-59
2023/02/10 13:19:46;;;;;;;16.85;15.35;;;;;;;;;;4500486;28;20069;-59
2023/02/10 13:21:59;;;;;;;16.38;14.98;;;;;;;;;;4470608;28;20039;-59
2023/02/10 13:24:10;;;;;;;16.80;15.30;;;;;;;;;;4465803;28;20034;-60